Time;durP1;ratioP1;P1;durP2;ratioP2;P2;SDS_P1;SDS_P2;PMS_P1;PMS_P2;Temp;Humidity;BMP_temperature;BMP_pressure;BME280_temperature;BME280_humidity;BME280_pressure;Samples;Min_cycle;Max_cycle;Signal;HPM_P1;HPM_P2
2023/04/02 00:01:00;;;;;;;0.97;0.20;;;;;;;11.16;89.10;98388.44;6250381;22;20172;-84
2023/04/02 00:03:42;;;;;;;0.20;0.20;;;;;;;11.15;88.92;98392.19;6227067;22;20161;-85
2023/04/02 00:06:24;;;;;;;0.13;0.13;;;;;;;11.26;88.26;98391.22;6229121;22;20203;-85
2023/04/02 00:08:57;;;;;;;0.13;0.13;;;;;;;11.19;88.94;98389.84;6228777;22;20603;-86
2023/04/02 00:11:44;;;;;;;0.83;0.20;;;;;;;11.23;88.64;98389.06;6204278;22;20180;-85
2023/04/02 00:14:22;;;;;;;0.30;0.30;;;;;;;11.26;88.35;98391.22;6203296;22;20178;-85
2023/04/02 00:16:50;;;;;;;0.23;0.20;;;;;;;11.25;88.25;98394.16;6203982;22;20161;-82
2023/04/02 00:19:48;;;;;;;0.20;0.20;;;;;;;11.22;88.43;98392.81;6203265;22;20199;-83
2023/04/02 00:22:26;;;;;;;0.43;0.23;;;;;;;11.04;89.01;98393.97;6253185;22;20161;-84
2023/04/02 00:24:55;;;;;;;0.40;0.30;;;;;;;11.12;88.81;98392.69;6253967;22;20223;-86
2023/04/02 00:27:22;;;;;;;0.23;0.23;;;;;;;11.11;89.48;98393.75;6228608;22;20259;-83
2023/04/02 00:29:51;;;;;;;1.13;0.20;;;;;;;11.07;89.58;98394.50;6228459;22;20172;-83
2023/04/02 00:32:35;;;;;;;0.47;0.23;;;;;;;11.04;89.64;98396.66;6202948;22;20254;-84
2023/04/02 00:35:04;;;;;;;0.30;0.27;;;;;;;11.04;89.78;98390.47;6203840;22;20172;-86
2023/04/02 00:37:42;;;;;;;0.20;0.20;;;;;;;11.07;89.60;98394.50;6206309;22;20168;-84
2023/04/02 00:40:18;;;;;;;0.50;0.20;;;;;;;11.01;90.12;98396.34;6202288;22;20232;-84
2023/04/02 00:42:47;;;;;;;1.60;0.20;;;;;;;11.01;90.42;98399.81;6228653;22;20203;-85
2023/04/02 00:45:25;;;;;;;1.40;0.30;;;;;;;10.95;90.32;98397.34;6203723;22;20161;-85
2023/04/02 00:47:51;;;;;;;0.30;0.30;;;;;;;11.02;90.17;98400.63;6203447;22;20164;-85
2023/04/02 00:50:28;;;;;;;0.17;0.13;;;;;;;10.95;90.49;98403.53;6204327;22;20606;-85
2023/04/02 00:52:57;;;;;;;0.50;0.23;;;;;;;10.93;90.73;98415.53;6229423;22;20250;-87
2023/04/02 00:55:29;;;;;;;0.30;0.20;;;;;;;10.89;91.06;98425.16;6228279;22;20218;-83
2023/04/02 00:57:57;;;;;;;0.37;0.20;;;;;;;10.92;90.98;98409.38;6228936;22;20183;-85
2023/04/02 01:00:32;;;;;;;0.30;0.20;;;;;;;11.04;90.25;98414.59;6227927;22;20172;-84
2023/04/02 01:03:15;;;;;;;0.40;0.23;;;;;;;10.95;90.59;98410.75;6228259;22;20213;-86
2023/04/02 01:05:44;;;;;;;1.60;0.20;;;;;;;10.99;90.51;98418.03;6253372;22;20160;-86
2023/04/02 01:08:22;;;;;;;0.30;0.30;;;;;;;10.96;91.07;98409.69;6228115;22;20191;-85
2023/04/02 01:11:17;;;;;;;0.47;0.30;;;;;;;10.98;90.71;98413.72;6227709;22;20156;-85
2023/04/02 01:14:17;;;;;;;0.20;0.20;;;;;;;10.93;91.33;98412.84;6228133;22;20208;-86
2023/04/02 01:16:49;;;;;;;0.20;0.20;;;;;;;11.00;90.94;98410.81;6227868;22;20609;-83
2023/04/02 01:19:32;;;;;;;0.20;0.20;;;;;;;10.83;91.29;98415.41;6202428;22;20646;-85
2023/04/02 01:22:41;;;;;;;0.10;0.10;;;;;;;10.88;91.13;98418.97;6253169;22;20165;-84
2023/04/02 01:25:14;;;;;;;0.37;0.27;;;;;;;10.95;90.97;98402.72;6232249;22;20171;-84
2023/04/02 01:27:49;;;;;;;0.20;0.20;;;;;;;10.87;91.16;98411.22;6204031;22;20195;-86
2023/04/02 01:30:20;;;;;;;0.10;0.10;;;;;;;10.87;91.00;98414.66;6203591;22;20167;-84
2023/04/02 01:32:53;;;;;;;0.20;0.10;;;;;;;10.91;91.09;98410.44;6205049;22;20246;-85
2023/04/02 01:35:24;;;;;;;0.30;0.20;;;;;;;10.87;90.95;98411.22;6204450;22;20164;-86
2023/04/02 01:37:56;;;;;;;0.23;0.20;;;;;;;10.82;91.40;98411.97;6203097;22;20168;-85
2023/04/02 01:40:31;;;;;;;0.10;0.10;;;;;;;10.76;91.57;98398.75;6228449;22;20177;-85
2023/04/02 01:43:15;;;;;;;0.20;0.20;;;;;;;10.75;91.82;98415.88;6253031;22;20168;-85
2023/04/02 01:45:43;;;;;;;0.10;0.10;;;;;;;10.59;92.44;98410.31;6227917;22;20223;-85
2023/04/02 01:48:18;;;;;;;0.20;0.20;;;;;;;10.65;92.45;98411.19;6227628;22;20168;-86
2023/04/02 01:50:55;;;;;;;0.30;0.23;;;;;;;10.72;92.35;98413.69;6229178;22;20155;-87
2023/04/02 01:53:29;;;;;;;0.10;0.10;;;;;;;10.56;93.04;98413.50;6229398;22;20152;-86
2023/04/02 01:55:59;;;;;;;0.00;0.00;;;;;;;10.58;93.25;98421.28;6227419;22;20243;-85
2023/04/02 01:58:28;;;;;;;0.40;0.20;;;;;;;10.58;93.71;98437.38;6202588;22;20168;-84
2023/04/02 02:00:58;;;;;;;0.87;0.20;;;;;;;10.62;93.59;98426.97;6202391;22;20168;-86
2023/04/02 02:03:26;;;;;;;0.93;0.20;;;;;;;10.49;93.90;98428.97;6252478;22;20175;-83
2023/04/02 02:05:54;;;;;;;0.30;0.10;;;;;;;10.63;93.47;98421.38;6227336;22;20168;-86
2023/04/02 02:08:50;;;;;;;0.33;0.20;;;;;;;10.56;94.27;98421.53;6228277;22;20192;-86
2023/04/02 02:11:22;;;;;;;0.20;0.20;;;;;;;10.64;93.55;98414.13;6228501;22;20160;-85
2023/04/02 02:14:00;;;;;;;0.20;0.10;;;;;;;10.68;93.77;98424.09;6202853;22;20165;-86
2023/04/02 02:16:40;;;;;;;0.10;0.10;;;;;;;10.58;93.69;98414.06;6229572;22;20152;-85
2023/04/02 02:20:01;;;;;;;0.10;0.10;;;;;;;10.57;94.01;98420.50;6203965;22;20193;-84
2023/04/02 02:22:33;;;;;;;0.10;0.10;;;;;;;10.53;93.91;98419.38;6217638;22;20169;-85
2023/04/02 02:25:14;;;;;;;0.20;0.10;;;;;;;10.34;94.47;98418.03;6202492;22;20196;-87
2023/04/02 02:28:07;;;;;;;0.10;0.10;;;;;;;10.38;94.70;98421.84;6252496;22;20163;-85
2023/04/02 02:30:44;;;;;;;0.10;0.10;;;;;;;10.44;94.79;98420.03;6202275;22;20168;-85
2023/04/02 02:33:33;;;;;;;0.20;0.20;;;;;;;10.44;94.90;98417.38;6202924;22;20657;-85
2023/04/02 02:36:32;;;;;;;0.27;0.10;;;;;;;10.53;94.55;98422.03;6204837;22;20172;-84
2023/04/02 02:39:04;;;;;;;0.30;0.20;;;;;;;10.51;95.19;98412.63;6210165;22;20180;-83
2023/04/02 02:41:50;;;;;;;0.37;0.20;;;;;;;10.45;95.40;98417.09;6229801;22;20168;-86
2023/04/02 02:44:23;;;;;;;0.13;0.10;;;;;;;10.43;95.87;98416.56;6228485;22;20171;-86
2023/04/02 02:47:00;;;;;;;0.43;0.20;;;;;;;10.40;96.45;98416.25;6202214;22;20168;-87
2023/04/02 02:49:37;;;;;;;0.20;0.10;;;;;;;10.45;96.47;98424.34;6203632;22;20243;-84
2023/04/02 02:52:20;;;;;;;0.20;0.10;;;;;;;10.43;96.25;98418.41;6229157;22;20166;-86
2023/04/02 02:55:15;;;;;;;0.10;0.10;;;;;;;10.37;97.26;98422.06;6199185;22;20247;-85
2023/04/02 02:58:06;;;;;;;0.43;0.10;;;;;;;10.33;97.51;98420.94;6228813;22;20168;-86
2023/04/02 03:00:50;;;;;;;0.33;0.20;;;;;;;10.38;97.01;98415.66;6230270;22;20188;-86
2023/04/02 03:03:24;;;;;;;0.30;0.10;;;;;;;10.36;97.55;98421.25;6228195;22;20169;-86
2023/04/02 03:06:05;;;;;;;0.10;0.10;;;;;;;10.24;97.69;98419.75;6255508;22;20603;-85
2023/04/02 03:08:47;;;;;;;0.30;0.13;;;;;;;10.42;97.66;98424.81;6227626;22;20168;-84
2023/04/02 03:11:38;;;;;;;0.20;0.17;;;;;;;10.38;97.83;98423.69;6252623;22;20171;-85
2023/04/02 03:14:15;;;;;;;0.27;0.20;;;;;;;10.41;97.37;98428.56;6204211;22;20168;-85
2023/04/02 03:16:46;;;;;;;0.10;0.10;;;;;;;10.36;97.48;98423.94;6228149;22;20172;-86
2023/04/02 03:19:37;;;;;;;0.17;0.17;;;;;;;10.45;97.62;98427.03;6202863;22;20195;-88
2023/04/02 03:22:15;;;;;;;0.20;0.20;;;;;;;10.37;97.91;98428.25;6228065;22;20163;-86
2023/04/02 03:24:58;;;;;;;1.40;0.30;;;;;;;10.30;98.39;98432.97;6202458;22;20610;-86
2023/04/02 03:27:38;;;;;;;0.20;0.20;;;;;;;10.43;98.33;98443.31;6228236;22;20636;-86
2023/04/02 03:30:24;;;;;;;0.20;0.20;;;;;;;10.33;98.77;98429.78;6202087;22;20251;-85
2023/04/02 03:32:59;;;;;;;0.57;0.27;;;;;;;10.31;98.63;98431.91;6282375;22;20207;-86
2023/04/02 03:35:32;;;;;;;0.23;0.20;;;;;;;10.48;98.92;98437.22;6257344;22;20177;-86
2023/04/02 03:38:05;;;;;;;0.20;0.10;;;;;;;10.37;99.26;98435.47;6233164;22;20162;-84
2023/04/02 03:40:43;;;;;;;0.37;0.23;;;;;;;10.34;99.88;98436.78;6232429;22;20270;-84
2023/04/02 03:43:22;;;;;;;0.40;0.23;;;;;;;10.34;99.82;98444.00;6260408;22;20167;-85
2023/04/02 03:45:56;;;;;;;0.97;0.37;;;;;;;10.49;99.60;98446.88;6260764;22;20235;-86
2023/04/02 03:48:41;;;;;;;0.30;0.30;;;;;;;10.28;100.00;98443.09;6235674;22;20618;-88
2023/04/02 03:51:13;;;;;;;0.30;0.30;;;;;;;10.29;100.00;98458.13;6260073;22;20641;-84
2023/04/02 03:53:47;;;;;;;0.47;0.20;;;;;;;10.32;100.00;98449.59;6237344;22;20151;-86
2023/04/02 03:56:40;;;;;;;0.40;0.30;;;;;;;10.43;100.00;98464.75;6261767;22;20151;-84
2023/04/02 03:59:44;;;;;;;0.20;0.20;;;;;;;10.47;100.00;98454.34;6263815;22;20187;-86
2023/04/02 04:02:25;;;;;;;0.30;0.30;;;;;;;10.49;100.00;98471.00;6237897;22;20163;-85
2023/04/02 04:04:57;;;;;;;0.37;0.37;;;;;;;10.43;100.00;98475.47;6260973;22;20617;-84
2023/04/02 04:07:34;;;;;;;1.03;0.30;;;;;;;10.49;100.00;98477.16;6235179;22;20171;-85
2023/04/02 04:10:03;;;;;;;0.27;0.27;;;;;;;10.39;100.00;98485.03;6260391;22;20600;-83
2023/04/02 04:12:35;;;;;;;0.60;0.40;;;;;;;10.54;100.00;98481.78;6235453;22;20613;-85
2023/04/02 04:15:14;;;;;;;0.60;0.40;;;;;;;10.51;100.00;98487.59;6243652;22;20178;-85
2023/04/02 04:17:50;;;;;;;0.50;0.40;;;;;;;10.57;100.00;98489.31;6281150;22;20160;-85
2023/04/02 04:20:29;;;;;;;0.33;0.30;;;;;;;10.54;100.00;98495.16;6260391;22;20220;-85
2023/04/02 04:23:07;;;;;;;0.57;0.40;;;;;;;10.45;100.00;98493.97;6285699;22;20193;-85
2023/04/02 04:25:42;;;;;;;0.30;0.30;;;;;;;10.48;100.00;98498.81;6260664;22;20171;-85
2023/04/02 04:28:24;;;;;;;0.97;0.30;;;;;;;10.56;100.00;98509.09;6237909;22;20183;-86
2023/04/02 04:31:16;;;;;;;0.70;0.40;;;;;;;10.52;100.00;98506.13;6236723;22;20262;-86
2023/04/02 04:33:53;;;;;;;0.30;0.30;;;;;;;10.62;100.00;98516.16;6261338;22;20167;-83
2023/04/02 04:36:34;;;;;;;0.27;0.27;;;;;;;10.67;100.00;98515.41;6236766;22;20168;-87
2023/04/02 04:39:13;;;;;;;0.50;0.50;;;;;;;10.60;100.00;98523.63;6261958;22;20246;-86
2023/04/02 04:41:45;;;;;;;0.70;0.43;;;;;;;10.59;100.00;98519.34;6261587;22;20168;-86
2023/04/02 04:44:16;;;;;;;1.60;0.40;;;;;;;10.63;100.00;98528.50;6260534;22;20176;-84
2023/04/02 04:47:06;;;;;;;0.47;0.40;;;;;;;10.69;100.00;98526.69;6261351;22;20183;-84
2023/04/02 04:49:40;;;;;;;0.50;0.50;;;;;;;10.71;100.00;98521.91;6260436;22;20241;-84
2023/04/02 04:52:37;;;;;;;0.60;0.40;;;;;;;10.84;100.00;98532.25;6235520;22;20167;-84
2023/04/02 04:55:27;;;;;;;0.50;0.40;;;;;;;10.73;100.00;98525.94;6265124;22;20167;-86
2023/04/02 04:58:02;;;;;;;0.33;0.33;;;;;;;10.75;100.00;98533.75;6234056;22;20163;-86
2023/04/02 05:00:48;;;;;;;0.53;0.30;;;;;;;10.81;100.00;98530.09;6259323;22;20179;-87
2023/04/02 05:03:35;;;;;;;0.37;0.33;;;;;;;10.90;100.00;98536.63;6258883;22;20168;-85
2023/04/02 05:06:10;;;;;;;0.57;0.30;;;;;;;10.96;99.99;98531.06;6259563;22;20183;-83
2023/04/02 05:08:43;;;;;;;0.30;0.30;;;;;;;11.02;99.14;98535.44;6234385;22;20251;-85
2023/04/02 05:11:29;;;;;;;0.47;0.40;;;;;;;11.03;99.24;98542.44;6234386;22;20185;-84
2023/04/02 05:14:04;;;;;;;0.60;0.50;;;;;;;11.03;99.25;98531.72;6259258;22;20163;-83
2023/04/02 05:16:55;;;;;;;0.60;0.30;;;;;;;11.13;99.11;98536.41;6258064;22;20168;-84
2023/04/02 05:19:42;;;;;;;0.50;0.47;;;;;;;11.24;97.59;98542.72;6258015;22;20695;-84
2023/04/02 05:22:22;;;;;;;0.50;0.50;;;;;;;11.33;97.58;98546.56;6258301;22;20491;-85
2023/04/02 05:25:12;;;;;;;0.33;0.33;;;;;;;11.35;97.29;98553.28;6258793;22;20181;-85
2023/04/02 05:28:06;;;;;;;0.50;0.40;;;;;;;11.50;96.51;98558.03;6258691;22;20160;-84
2023/04/02 05:31:00;;;;;;;0.60;0.57;;;;;;;11.50;96.55;98552.66;6242358;22;20167;-84
2023/04/02 05:33:34;;;;;;;0.53;0.40;;;;;;;11.40;96.11;98557.91;6234563;22;20250;-87
2023/04/02 05:36:12;;;;;;;0.93;0.50;;;;;;;11.52;95.97;98550.53;6234446;22;20167;-86
2023/04/02 05:38:49;;;;;;;0.40;0.40;;;;;;;11.43;95.91;98550.16;6235702;22;20170;-87
2023/04/02 05:41:39;;;;;;;0.50;0.47;;;;;;;11.50;96.41;98552.66;6261711;22;20160;-86
2023/04/02 05:44:29;;;;;;;0.43;0.43;;;;;;;11.47;95.98;98556.66;6234578;22;20563;-85
2023/04/02 05:47:09;;;;;;;0.60;0.40;;;;;;;11.59;95.93;98558.38;6233649;22;20168;-83
2023/04/02 05:50:04;;;;;;;0.80;0.50;;;;;;;11.66;95.94;98559.81;6234567;22;20163;-85
2023/04/02 05:52:49;;;;;;;0.70;0.40;;;;;;;11.49;96.43;98557.19;6259643;22;20624;-85
2023/04/02 05:55:16;;;;;;;0.50;0.50;;;;;;;11.36;97.73;98570.19;6233779;22;20159;-87
2023/04/02 05:58:20;;;;;;;0.67;0.43;;;;;;;11.44;97.92;98567.06;6283453;22;20166;-85
2023/04/02 06:01:23;;;;;;;0.67;0.50;;;;;;;11.29;98.67;98573.03;6237071;22;20256;-84
2023/04/02 06:03:58;;;;;;;0.40;0.40;;;;;;;11.31;98.93;98576.31;6284003;22;20164;-87
2023/04/02 06:06:43;;;;;;;0.87;0.50;;;;;;;11.18;99.90;98557.91;6283870;22;20191;-86
2023/04/02 06:09:29;;;;;;;0.50;0.40;;;;;;;11.23;99.78;98576.75;6258864;22;20213;-85
2023/04/02 06:12:10;;;;;;;0.60;0.50;;;;;;;11.31;99.54;98583.53;6233269;22;20167;-86
2023/04/02 06:14:45;;;;;;;0.53;0.50;;;;;;;11.42;99.08;98583.41;6261281;22;20155;-86
2023/04/02 06:17:15;;;;;;;0.50;0.33;;;;;;;11.45;99.22;98585.59;6233946;22;20167;-86
2023/04/02 06:19:44;;;;;;;0.83;0.60;;;;;;;11.46;99.17;98597.94;6232803;22;20196;-87
2023/04/02 06:22:18;;;;;;;1.03;0.40;;;;;;;11.46;99.42;98586.41;6259558;22;20213;-87
2023/04/02 06:24:50;;;;;;;0.33;0.33;;;;;;;11.60;98.72;98584.97;6232733;22;20174;-85
2023/04/02 06:27:23;;;;;;;1.27;0.50;;;;;;;11.84;98.08;98589.03;6234647;22;20163;-86
2023/04/02 06:29:56;;;;;;;0.47;0.30;;;;;;;11.91;97.77;98597.66;6234687;22;20159;-86
2023/04/02 06:32:26;;;;;;;0.70;0.40;;;;;;;12.16;97.26;98599.78;6234372;22;20217;-84
2023/04/02 06:34:55;;;;;;;0.73;0.33;;;;;;;12.25;96.56;98600.94;6257580;22;20163;-88
2023/04/02 06:37:32;;;;;;;0.80;0.50;;;;;;;12.44;95.69;98603.25;6234590;22;20214;-84
2023/04/02 06:40:30;;;;;;;1.07;0.50;;;;;;;12.52;94.68;98608.16;6261110;22;20187;-85
2023/04/02 06:43:15;;;;;;;0.53;0.40;;;;;;;12.83;93.01;98595.75;6258440;22;20158;-84
2023/04/02 06:46:47;;;;;;;0.50;0.47;;;;;;;12.96;92.13;98612.25;6257921;22;20171;-84
2023/04/02 06:49:23;;;;;;;1.30;0.60;;;;;;;13.37;91.11;98604.44;6233560;22;20163;-87
2023/04/02 06:51:56;;;;;;;0.97;0.50;;;;;;;13.19;90.48;98603.81;6235292;22;20253;-85
2023/04/02 06:54:25;;;;;;;0.40;0.40;;;;;;;13.52;89.49;98601.81;6258242;22;20168;-85
2023/04/02 06:57:00;;;;;;;2.03;0.50;;;;;;;13.63;89.28;98603.44;6259902;22;20164;-86
2023/04/02 06:59:35;;;;;;;1.03;0.40;;;;;;;13.75;88.54;98604.03;6258906;22;20164;-85
2023/04/02 07:02:34;;;;;;;0.40;0.40;;;;;;;14.02;86.94;98609.22;6234617;22;20167;-86
2023/04/02 07:05:16;;;;;;;0.30;0.30;;;;;;;14.05;87.39;98614.06;6286585;22;20152;-85
2023/04/02 07:07:48;;;;;;;0.80;0.40;;;;;;;14.16;87.77;98620.28;6233676;22;20242;-85
2023/04/02 07:10:18;;;;;;;0.67;0.40;;;;;;;14.31;86.38;98620.31;6232424;22;20184;-86
2023/04/02 07:13:01;;;;;;;0.50;0.43;;;;;;;14.06;86.46;98618.38;6238049;22;20613;-83
2023/04/02 07:15:30;;;;;;;0.57;0.50;;;;;;;14.24;86.62;98635.91;6231860;22;20203;-85
2023/04/02 07:18:00;;;;;;;1.40;0.50;;;;;;;14.35;86.08;98627.59;6232499;22;20168;-85
2023/04/02 07:20:33;;;;;;;1.03;0.40;;;;;;;14.37;85.50;98633.53;6231788;22;20653;-84
2023/04/02 07:23:05;;;;;;;0.43;0.40;;;;;;;14.26;85.45;98629.19;6257460;22;20699;-84
2023/04/02 07:25:36;;;;;;;0.40;0.30;;;;;;;14.29;85.76;98627.84;6232748;22;20169;-83
2023/04/02 07:28:03;;;;;;;0.93;0.50;;;;;;;14.20;85.21;98635.66;6231991;22;20180;-83
2023/04/02 07:30:34;;;;;;;0.40;0.30;;;;;;;14.40;84.84;98637.59;6233288;22;20156;-83
2023/04/02 07:33:03;;;;;;;0.93;0.50;;;;;;;14.41;84.50;98633.84;6233126;22;20622;-85
2023/04/02 07:35:31;;;;;;;0.30;0.30;;;;;;;14.56;83.84;98635.72;6232339;22;20179;-85
2023/04/02 07:38:05;;;;;;;0.40;0.30;;;;;;;14.57;83.49;98632.75;6257328;22;20224;-84
2023/04/02 07:40:32;;;;;;;1.13;0.50;;;;;;;14.80;82.46;98639.47;6231830;22;20241;-86
2023/04/02 07:42:59;;;;;;;0.60;0.40;;;;;;;14.52;82.80;98655.13;6257231;22;20200;-83
2023/04/02 07:45:29;;;;;;;0.77;0.30;;;;;;;14.67;82.72;98664.28;6231939;22;20164;-84
2023/04/02 07:48:10;;;;;;;0.60;0.40;;;;;;;14.57;82.27;98648.91;6233797;22;20165;-84
2023/04/02 07:50:37;;;;;;;0.43;0.20;;;;;;;14.73;82.21;98653.25;6257104;22;20152;-87
2023/04/02 07:53:05;;;;;;;0.93;0.50;;;;;;;14.87;81.98;98651.63;6256884;22;20246;-84
2023/04/02 07:55:32;;;;;;;0.30;0.30;;;;;;;14.86;80.55;98658.09;6257185;22;20178;-85
2023/04/02 07:58:06;;;;;;;0.30;0.30;;;;;;;14.86;81.89;98662.69;6234054;22;20163;-87
2023/04/02 08:00:35;;;;;;;0.23;0.23;;;;;;;15.12;81.21;98660.75;6256424;22;20187;-84
2023/04/02 08:03:03;;;;;;;0.40;0.40;;;;;;;15.16;80.49;98661.84;6231724;22;20221;-88
2023/04/02 08:05:30;;;;;;;0.30;0.30;;;;;;;15.03;81.36;98676.69;6256940;22;20168;-85
2023/04/02 08:07:58;;;;;;;0.30;0.30;;;;;;;14.98;81.31;98680.19;6231812;22;20183;-85
2023/04/02 08:10:27;;;;;;;0.20;0.20;;;;;;;15.27;80.67;98683.13;6232042;22;20172;-85
2023/04/02 08:12:54;;;;;;;0.97;0.30;;;;;;;15.05;80.07;98687.22;6231292;22;20169;-86
2023/04/02 08:15:25;;;;;;;0.73;0.40;;;;;;;14.98;80.84;98685.59;6232936;22;20263;-87
2023/04/02 08:17:57;;;;;;;0.60;0.40;;;;;;;15.42;80.06;98685.00;6231646;22;20168;-87
2023/04/02 08:20:24;;;;;;;0.30;0.30;;;;;;;15.22;78.45;98688.53;6231563;22;20255;-85
2023/04/02 08:22:52;;;;;;;0.60;0.30;;;;;;;15.16;79.40;98684.25;6257199;22;20169;-86
2023/04/02 08:25:19;;;;;;;0.80;0.30;;;;;;;15.44;79.47;98694.41;6231418;22;20169;-85
2023/04/02 08:27:47;;;;;;;0.40;0.30;;;;;;;15.01;79.75;98695.03;6257689;22;20227;-85
2023/04/02 08:30:15;;;;;;;0.40;0.40;;;;;;;15.35;79.81;98709.56;6258774;22;20590;-85
2023/04/02 08:32:44;;;;;;;0.50;0.30;;;;;;;14.86;78.92;98693.16;6258582;22;20196;-84
2023/04/02 08:35:15;;;;;;;0.30;0.30;;;;;;;14.98;80.32;98703.66;6233986;22;20225;-83
2023/04/02 08:37:45;;;;;;;2.23;0.40;;;;;;;14.89;80.77;98702.56;6234997;22;20661;-87
2023/04/02 08:40:33;;;;;;;0.20;0.20;;;;;;;15.37;79.91;98698.50;6233291;22;20265;-84
2023/04/02 08:43:23;;;;;;;0.23;0.23;;;;;;;15.41;79.10;98711.16;6233915;22;20168;-86
2023/04/02 08:46:29;;;;;;;0.20;0.20;;;;;;;15.16;78.73;98700.44;6258508;22;20215;-84
2023/04/02 08:49:02;;;;;;;0.20;0.20;;;;;;;14.93;79.68;98707.16;6234442;22;20648;-85
2023/04/02 08:51:34;;;;;;;0.30;0.30;;;;;;;15.38;78.95;98709.03;6233331;22;20248;-85
2023/04/02 08:54:07;;;;;;;1.40;0.40;;;;;;;15.57;79.44;98720.09;6259502;22;20191;-85
2023/04/02 08:56:40;;;;;;;0.30;0.30;;;;;;;15.35;78.83;98719.56;6284329;22;20192;-84
2023/04/02 08:59:24;;;;;;;0.60;0.40;;;;;;;15.30;78.33;98724.97;6233738;22;20241;-84
2023/04/02 09:02:13;;;;;;;0.50;0.30;;;;;;;15.22;79.81;98726.31;6233909;22;20184;-86
2023/04/02 09:04:40;;;;;;;0.43;0.30;;;;;;;15.24;81.30;98728.75;6257574;22;20253;-85
2023/04/02 09:07:13;;;;;;;1.27;0.50;;;;;;;15.12;81.46;98729.00;6232773;22;20172;-86
2023/04/02 09:09:40;;;;;;;0.33;0.33;;;;;;;14.78;81.09;98734.13;6258443;22;20166;-86
2023/04/02 09:12:17;;;;;;;0.47;0.47;;;;;;;14.91;81.85;98733.59;6259508;22;20241;-85
2023/04/02 09:15:10;;;;;;;0.33;0.30;;;;;;;14.91;82.17;98736.31;6258409;22;20176;-85
2023/04/02 09:17:38;;;;;;;0.30;0.30;;;;;;;15.06;81.96;98734.69;6283319;22;20188;-84
2023/04/02 09:20:25;;;;;;;0.40;0.40;;;;;;;14.82;83.02;98742.50;6238969;22;20177;-86
2023/04/02 09:22:55;;;;;;;0.20;0.20;;;;;;;14.87;81.21;98740.63;6233544;22;20653;-85
2023/04/02 09:25:30;;;;;;;0.50;0.30;;;;;;;14.84;82.51;98745.72;6232928;22;20170;-86
2023/04/02 09:28:01;;;;;;;0.40;0.40;;;;;;;14.59;83.47;98746.50;6232986;22;20173;-87
2023/04/02 09:31:02;;;;;;;0.30;0.30;;;;;;;14.75;84.22;98760.81;6233310;22;20166;-86
2023/04/02 09:33:49;;;;;;;0.20;0.20;;;;;;;14.67;83.80;98751.38;6234211;22;20173;-84
2023/04/02 09:36:32;;;;;;;0.40;0.40;;;;;;;14.90;81.43;98755.44;6283921;22;20173;-86
2023/04/02 09:39:15;;;;;;;0.93;0.50;;;;;;;14.71;80.41;98757.84;6234156;22;20175;-84
2023/04/02 09:41:45;;;;;;;0.40;0.40;;;;;;;14.38;81.20;98764.50;6257883;22;20206;-83
2023/04/02 09:44:30;;;;;;;0.57;0.40;;;;;;;14.85;80.85;98774.31;6240592;22;20183;-85
2023/04/02 09:47:12;;;;;;;1.40;0.50;;;;;;;14.90;80.58;98775.13;6256868;22;20164;-84
2023/04/02 09:49:43;;;;;;;0.40;0.40;;;;;;;15.16;79.96;98769.75;6258040;22;20167;-87
2023/04/02 09:52:10;;;;;;;0.40;0.37;;;;;;;15.01;80.35;98780.53;6232284;22;20513;-86
2023/04/02 09:54:40;;;;;;;0.53;0.50;;;;;;;14.75;80.78;98783.19;6257989;22;20213;-86
2023/04/02 09:57:23;;;;;;;0.40;0.40;;;;;;;15.08;80.84;98789.97;6258331;22;20164;-86
2023/04/02 10:00:15;;;;;;;0.50;0.50;;;;;;;15.16;80.27;98789.47;6261190;22;20249;-84
2023/04/02 10:03:13;;;;;;;0.67;0.67;;;;;;;15.11;80.15;98785.94;6283016;22;20255;-84
2023/04/02 10:05:41;;;;;;;0.33;0.30;;;;;;;14.60;81.79;98787.75;6257605;22;20642;-84
2023/04/02 10:08:20;;;;;;;0.50;0.50;;;;;;;14.42;82.49;98789.03;6257697;22;20257;-84
2023/04/02 10:10:52;;;;;;;0.90;0.50;;;;;;;14.03;86.48;98794.78;6232043;22;20156;-85
2023/04/02 10:13:23;;;;;;;0.57;0.50;;;;;;;14.20;89.06;98791.88;6232372;22;20172;-84
2023/04/02 10:15:57;;;;;;;0.60;0.60;;;;;;;14.45;89.39;98793.91;6257133;22;20165;-83
2023/04/02 10:19:05;;;;;;;0.50;0.50;;;;;;;14.61;91.14;98803.66;6257612;22;20615;-84
2023/04/02 10:21:37;;;;;;;0.60;0.60;;;;;;;14.62;92.56;98799.06;6113161;23;20195;-83
2023/04/02 10:24:13;;;;;;;1.07;0.80;;;;;;;14.49;91.73;98792.31;6242881;22;20183;-83
2023/04/02 10:27:15;;;;;;;0.60;0.60;;;;;;;14.53;92.73;98793.38;6231515;22;20172;-81
2023/04/02 10:30:01;;;;;;;0.50;0.50;;;;;;;14.35;94.13;98793.84;6259528;22;20164;-82
2023/04/02 10:32:35;;;;;;;0.60;0.60;;;;;;;14.35;95.01;98797.34;6207316;22;20287;-81
2023/04/02 10:35:23;;;;;;;1.50;0.67;;;;;;;13.99;94.91;98804.47;6250797;22;20161;-83
2023/04/02 10:38:00;;;;;;;0.70;0.70;;;;;;;14.01;95.28;98805.00;6226117;22;20157;-83
2023/04/02 10:40:49;;;;;;;0.70;0.70;;;;;;;14.01;94.21;98805.00;6202776;22;20587;-83
2023/04/02 10:43:45;;;;;;;0.60;0.60;;;;;;;14.26;94.66;98814.28;6226238;22;20276;-82
2023/04/02 10:46:33;;;;;;;0.70;0.70;;;;;;;14.24;92.89;98805.63;6226405;22;20164;-82
2023/04/02 10:49:04;;;;;;;1.23;0.67;;;;;;;14.27;92.54;98810.53;6225826;22;20247;-83
2023/04/02 10:51:54;;;;;;;0.40;0.40;;;;;;;14.70;90.03;98804.75;6225598;22;20178;-82
2023/04/02 10:54:47;;;;;;;0.50;0.50;;;;;;;15.02;88.68;98809.13;6214562;22;20161;-83
2023/04/02 10:57:39;;;;;;;1.53;0.60;;;;;;;15.24;89.32;98817.78;6226527;22;20170;-83
2023/04/02 11:00:14;;;;;;;0.60;0.60;;;;;;;16.04;88.11;98814.22;6201424;22;20207;-85
2023/04/02 11:03:05;;;;;;;0.60;0.60;;;;;;;15.88;86.71;98817.22;6226069;22;20262;-82
2023/04/02 11:05:54;;;;;;;0.70;0.60;;;;;;;16.13;84.35;98817.97;6226555;22;20173;-82
2023/04/02 11:08:26;;;;;;;0.53;0.53;;;;;;;15.78;84.75;98816.16;6227886;22;20242;-84
2023/04/02 11:11:17;;;;;;;1.40;0.53;;;;;;;16.15;82.89;98818.50;6201584;22;20168;-83
2023/04/02 11:13:48;;;;;;;0.73;0.60;;;;;;;16.25;83.35;98825.75;6252193;22;20153;-83
2023/04/02 11:16:15;;;;;;;1.00;0.50;;;;;;;16.12;83.93;98821.75;6226036;22;20170;-85
2023/04/02 11:19:14;;;;;;;0.50;0.50;;;;;;;15.83;83.53;98821.56;6201536;22;20221;-85
2023/04/02 11:21:43;;;;;;;0.43;0.43;;;;;;;16.06;85.01;98832.84;6226318;22;20184;-83
2023/04/02 11:24:32;;;;;;;0.87;0.80;;;;;;;15.77;85.74;98835.34;6229353;22;20167;-85
2023/04/02 11:27:10;;;;;;;0.53;0.50;;;;;;;15.51;88.29;98836.44;6226892;22;20514;-85
2023/04/02 11:29:44;;;;;;;0.67;0.60;;;;;;;15.44;87.62;98842.09;6278585;22;20182;-82
2023/04/02 11:32:19;;;;;;;0.60;0.60;;;;;;;15.31;87.20;98837.22;6226723;22;20203;-84
2023/04/02 11:34:46;;;;;;;0.87;0.60;;;;;;;15.44;88.89;98844.78;6226026;22;20201;-85
2023/04/02 11:37:45;;;;;;;0.50;0.50;;;;;;;15.11;86.63;98843.41;6251059;22;20249;-84
2023/04/02 11:40:34;;;;;;;0.47;0.47;;;;;;;14.97;87.20;98834.22;6201326;22;20174;-83
2023/04/02 11:43:33;;;;;;;0.50;0.40;;;;;;;14.87;86.03;98840.41;6250764;22;20188;-84
2023/04/02 11:46:15;;;;;;;0.40;0.40;;;;;;;14.41;87.17;98841.34;6226063;22;20205;-84
2023/04/02 11:48:42;;;;;;;0.30;0.30;;;;;;;14.27;88.59;98840.16;6251621;22;20165;-83
2023/04/02 11:51:21;;;;;;;0.30;0.30;;;;;;;14.06;90.77;98847.31;6201237;22;20169;-82
2023/04/02 11:53:53;;;;;;;0.50;0.30;;;;;;;13.72;91.00;98851.41;6250945;22;20167;-85
2023/04/02 11:56:34;;;;;;;0.30;0.30;;;;;;;13.45;91.17;98849.59;6227950;22;20145;-84
2023/04/02 11:59:19;;;;;;;1.33;0.40;;;;;;;13.15;93.38;98858.22;6200981;22;20247;-84
2023/04/02 12:02:20;;;;;;;0.30;0.30;;;;;;;13.11;95.53;98858.97;6227250;22;20643;-83
2023/04/02 12:05:18;;;;;;;0.30;0.30;;;;;;;12.97;97.38;98857.72;6253287;22;20171;-85
2023/04/02 12:08:11;;;;;;;0.30;0.30;;;;;;;12.99;95.41;98866.34;6205027;22;20214;-83
2023/04/02 12:10:55;;;;;;;0.37;0.37;;;;;;;12.77;96.56;98864.50;6203228;22;20172;-85
2023/04/02 12:13:40;;;;;;;0.30;0.30;;;;;;;12.66;96.58;98865.44;6203224;22;20165;-84
2023/04/02 12:16:11;;;;;;;0.30;0.30;;;;;;;12.47;98.01;98869.50;6228183;22;20194;-83
2023/04/02 12:18:47;;;;;;;0.63;0.50;;;;;;;12.42;98.71;98876.69;6204801;22;20663;-83
2023/04/02 12:21:16;;;;;;;0.40;0.37;;;;;;;12.25;99.75;98885.63;6203743;22;20207;-83
2023/04/02 12:23:51;;;;;;;0.40;0.40;;;;;;;11.94;100.00;98909.59;6205113;22;20162;-86
2023/04/02 12:26:36;;;;;;;1.30;1.20;;;;;;;10.64;100.00;98915.84;6203816;22;20195;-82